Terminal Aerodrome Forecast
Issued by NWS

Home | Current Version | Previous Version | Text Only | Print | Product List | Glossary On
Versions: 1 2 3 4 5 6 7 8 9 10 11 12 13 14 15 16
379
FTUS44 KBMX 060539
TAFMGM
TAF
KMGM 060539Z 0606/0706 02003KT P6SM SCT150 SCT250
     FM061800 33005KT P6SM BKN250=

USA.gov is the U.S. government's official web portal to all federal, state and local government web resources and services.